sensor_id;sensor_type;location;lat;lon;timestamp;P1;durP1;ratioP1;P2;durP2;ratioP2
45694;SDS011;31408;45.468;9.124;2023-02-01T00:00:01;47.55;;;25.42;;
45694;SDS011;31408;45.468;9.124;2023-02-01T00:02:27;50.40;;;27.00;;
45694;SDS011;31408;45.468;9.124;2023-02-01T00:04:52;54.92;;;26.70;;
45694;SDS011;31408;45.468;9.124;2023-02-01T00:07:33;67.32;;;30.77;;
45694;SDS011;31408;45.468;9.124;2023-02-01T00:09:58;48.53;;;25.40;;
45694;SDS011;31408;45.468;9.124;2023-02-01T00:12:24;59.53;;;27.88;;
45694;SDS011;31408;45.468;9.124;2023-02-01T00:14:49;55.83;;;26.50;;
45694;SDS011;31408;45.468;9.124;2023-02-01T00:17:15;61.80;;;26.45;;
45694;SDS011;31408;45.468;9.124;2023-02-01T00:19:40;59.53;;;26.75;;
45694;SDS011;31408;45.468;9.124;2023-02-01T00:22:06;51.08;;;27.25;;
45694;SDS011;31408;45.468;9.124;2023-02-01T00:24:31;56.17;;;27.75;;
45694;SDS011;31408;45.468;9.124;2023-02-01T00:26:57;53.55;;;25.77;;
45694;SDS011;31408;45.468;9.124;2023-02-01T00:29:22;54.53;;;24.88;;
45694;SDS011;31408;45.468;9.124;2023-02-01T00:31:49;49.50;;;26.25;;
45694;SDS011;31408;45.468;9.124;2023-02-01T00:34:16;57.22;;;29.13;;
45694;SDS011;31408;45.468;9.124;2023-02-01T00:36:43;47.65;;;26.50;;
45694;SDS011;31408;45.468;9.124;2023-02-01T00:39:09;56.63;;;25.67;;
45694;SDS011;31408;45.468;9.124;2023-02-01T00:41:36;52.67;;;27.02;;
45694;SDS011;31408;45.468;9.124;2023-02-01T00:44:04;48.25;;;24.67;;
45694;SDS011;31408;45.468;9.124;2023-02-01T00:46:30;50.05;;;26.05;;
45694;SDS011;31408;45.468;9.124;2023-02-01T00:48:55;54.38;;;25.60;;
45694;SDS011;31408;45.468;9.124;2023-02-01T00:51:22;56.35;;;26.15;;
45694;SDS011;31408;45.468;9.124;2023-02-01T00:53:49;51.33;;;25.58;;
45694;SDS011;31408;45.468;9.124;2023-02-01T00:56:14;55.13;;;28.27;;
45694;SDS011;31408;45.468;9.124;2023-02-01T00:58:40;57.33;;;28.40;;
45694;SDS011;31408;45.468;9.124;2023-02-01T01:03:51;55.03;;;26.50;;
45694;SDS011;31408;45.468;9.124;2023-02-01T01:06:24;55.42;;;28.35;;
45694;SDS011;31408;45.468;9.124;2023-02-01T01:08:52;48.88;;;25.15;;
45694;SDS011;31408;45.468;9.124;2023-02-01T01:11:20;54.33;;;25.90;;
45694;SDS011;31408;45.468;9.124;2023-02-01T01:13:48;51.78;;;26.08;;
45694;SDS011;31408;45.468;9.124;2023-02-01T01:16:14;52.30;;;25.17;;
45694;SDS011;31408;45.468;9.124;2023-02-01T01:18:40;54.05;;;25.17;;
45694;SDS011;31408;45.468;9.124;2023-02-01T01:21:07;55.40;;;26.10;;
45694;SDS011;31408;45.468;9.124;2023-02-01T01:23:34;52.60;;;26.30;;
45694;SDS011;31408;45.468;9.124;2023-02-01T01:26:00;42.58;;;23.08;;
45694;SDS011;31408;45.468;9.124;2023-02-01T01:28:26;47.80;;;26.02;;
45694;SDS011;31408;45.468;9.124;2023-02-01T01:30:51;48.30;;;22.08;;
45694;SDS011;31408;45.468;9.124;2023-02-01T01:33:17;44.00;;;23.70;;
45694;SDS011;31408;45.468;9.124;2023-02-01T01:35:43;45.55;;;21.80;;
45694;SDS011;31408;45.468;9.124;2023-02-01T01:38:09;40.08;;;20.27;;
45694;SDS011;31408;45.468;9.124;2023-02-01T01:40:35;48.47;;;22.05;;
45694;SDS011;31408;45.468;9.124;2023-02-01T01:43:01;48.45;;;22.98;;
45694;SDS011;31408;45.468;9.124;2023-02-01T01:45:31;49.80;;;24.63;;
45694;SDS011;31408;45.468;9.124;2023-02-01T01:47:59;48.03;;;22.23;;
45694;SDS011;31408;45.468;9.124;2023-02-01T01:51:27;50.38;;;21.33;;
45694;SDS011;31408;45.468;9.124;2023-02-01T01:53:42;45.88;;;21.48;;
45694;SDS011;31408;45.468;9.124;2023-02-01T01:56:12;46.35;;;21.98;;
45694;SDS011;31408;45.468;9.124;2023-02-01T01:58:38;45.40;;;22.10;;
45694;SDS011;31408;45.468;9.124;2023-02-01T02:01:03;41.30;;;18.45;;
45694;SDS011;31408;45.468;9.124;2023-02-01T02:03:34;42.85;;;19.63;;
45694;SDS011;31408;45.468;9.124;2023-02-01T02:08:28;38.40;;;18.42;;
45694;SDS011;31408;45.468;9.124;2023-02-01T02:10:54;43.08;;;20.95;;
45694;SDS011;31408;45.468;9.124;2023-02-01T02:13:45;39.90;;;18.40;;
45694;SDS011;31408;45.468;9.124;2023-02-01T02:21:45;39.47;;;19.27;;
45694;SDS011;31408;45.468;9.124;2023-02-01T02:34:44;37.13;;;18.95;;
45694;SDS011;31408;45.468;9.124;2023-02-01T02:42:50;35.92;;;16.95;;
45694;SDS011;31408;45.468;9.124;2023-02-01T02:45:54;37.28;;;17.67;;
45694;SDS011;31408;45.468;9.124;2023-02-01T02:49:01;45.80;;;18.60;;
45694;SDS011;31408;45.468;9.124;2023-02-01T02:54:34;36.35;;;16.60;;
45694;SDS011;31408;45.468;9.124;2023-02-01T02:57:23;38.08;;;16.00;;
45694;SDS011;31408;45.468;9.124;2023-02-01T03:00:09;32.63;;;15.32;;
45694;SDS011;31408;45.468;9.124;2023-02-01T03:02:55;36.67;;;16.45;;
45694;SDS011;31408;45.468;9.124;2023-02-01T03:05:40;30.15;;;15.98;;
45694;SDS011;31408;45.468;9.124;2023-02-01T03:10:53;30.95;;;14.48;;
45694;SDS011;31408;45.468;9.124;2023-02-01T03:13:41;35.92;;;15.13;;
45694;SDS011;31408;45.468;9.124;2023-02-01T03:16:30;39.45;;;18.60;;
45694;SDS011;31408;45.468;9.124;2023-02-01T03:21:47;38.20;;;16.23;;
45694;SDS011;31408;45.468;9.124;2023-02-01T03:24:26;39.10;;;16.83;;
45694;SDS011;31408;45.468;9.124;2023-02-01T03:32:44;30.55;;;15.50;;
45694;SDS011;31408;45.468;9.124;2023-02-01T03:35:36;35.72;;;15.77;;
45694;SDS011;31408;45.468;9.124;2023-02-01T03:40:48;35.42;;;16.38;;
45694;SDS011;31408;45.468;9.124;2023-02-01T03:43:17;32.47;;;15.00;;
45694;SDS011;31408;45.468;9.124;2023-02-01T03:45:46;38.10;;;16.38;;
45694;SDS011;31408;45.468;9.124;2023-02-01T03:48:15;31.33;;;14.73;;
45694;SDS011;31408;45.468;9.124;2023-02-01T03:50:49;27.48;;;13.18;;
45694;SDS011;31408;45.468;9.124;2023-02-01T03:53:19;32.88;;;15.65;;
45694;SDS011;31408;45.468;9.124;2023-02-01T03:55:46;29.00;;;13.50;;
45694;SDS011;31408;45.468;9.124;2023-02-01T03:58:18;28.35;;;12.93;;
45694;SDS011;31408;45.468;9.124;2023-02-01T04:00:45;30.80;;;14.05;;
45694;SDS011;31408;45.468;9.124;2023-02-01T04:03:24;30.77;;;15.13;;
45694;SDS011;31408;45.468;9.124;2023-02-01T04:05:51;34.65;;;14.38;;
45694;SDS011;31408;45.468;9.124;2023-02-01T04:08:18;27.95;;;12.45;;
45694;SDS011;31408;45.468;9.124;2023-02-01T04:10:44;28.95;;;13.23;;
45694;SDS011;31408;45.468;9.124;2023-02-01T04:13:10;28.67;;;13.45;;
45694;SDS011;31408;45.468;9.124;2023-02-01T04:15:35;30.45;;;14.55;;
45694;SDS011;31408;45.468;9.124;2023-02-01T04:18:01;32.08;;;14.73;;
45694;SDS011;31408;45.468;9.124;2023-02-01T04:20:27;30.58;;;13.07;;
45694;SDS011;31408;45.468;9.124;2023-02-01T04:22:52;35.35;;;15.75;;
45694;SDS011;31408;45.468;9.124;2023-02-01T04:25:18;33.22;;;14.15;;
45694;SDS011;31408;45.468;9.124;2023-02-01T04:30:42;32.60;;;13.45;;
45694;SDS011;31408;45.468;9.124;2023-02-01T04:33:07;34.17;;;12.15;;
45694;SDS011;31408;45.468;9.124;2023-02-01T04:35:33;30.98;;;13.50;;
45694;SDS011;31408;45.468;9.124;2023-02-01T04:37:59;31.38;;;15.00;;
45694;SDS011;31408;45.468;9.124;2023-02-01T04:40:24;27.73;;;12.13;;
45694;SDS011;31408;45.468;9.124;2023-02-01T04:42:50;28.17;;;12.68;;
45694;SDS011;31408;45.468;9.124;2023-02-01T04:45:15;32.72;;;14.00;;
45694;SDS011;31408;45.468;9.124;2023-02-01T04:47:46;27.50;;;10.70;;
45694;SDS011;31408;45.468;9.124;2023-02-01T04:50:13;26.73;;;12.50;;
45694;SDS011;31408;45.468;9.124;2023-02-01T04:52:39;31.50;;;13.38;;
45694;SDS011;31408;45.468;9.124;2023-02-01T04:55:05;34.97;;;12.82;;
45694;SDS011;31408;45.468;9.124;2023-02-01T04:57:31;27.98;;;12.30;;
45694;SDS011;31408;45.468;9.124;2023-02-01T04:59:56;26.35;;;10.77;;
45694;SDS011;31408;45.468;9.124;2023-02-01T05:02:22;28.98;;;12.80;;
45694;SDS011;31408;45.468;9.124;2023-02-01T05:04:47;29.92;;;11.98;;
45694;SDS011;31408;45.468;9.124;2023-02-01T05:07:13;26.67;;;11.25;;
45694;SDS011;31408;45.468;9.124;2023-02-01T05:09:39;30.27;;;13.38;;
45694;SDS011;31408;45.468;9.124;2023-02-01T05:12:04;27.85;;;12.88;;
45694;SDS011;31408;45.468;9.124;2023-02-01T05:14:48;25.92;;;11.30;;
45694;SDS011;31408;45.468;9.124;2023-02-01T05:17:14;27.92;;;11.77;;
45694;SDS011;31408;45.468;9.124;2023-02-01T05:19:39;23.77;;;11.15;;
45694;SDS011;31408;45.468;9.124;2023-02-01T05:22:05;27.23;;;13.63;;
45694;SDS011;31408;45.468;9.124;2023-02-01T05:24:30;30.02;;;11.73;;
45694;SDS011;31408;45.468;9.124;2023-02-01T05:26:56;29.98;;;13.10;;
45694;SDS011;31408;45.468;9.124;2023-02-01T05:29:21;27.02;;;11.85;;
45694;SDS011;31408;45.468;9.124;2023-02-01T05:31:48;25.90;;;10.82;;
45694;SDS011;31408;45.468;9.124;2023-02-01T05:34:13;29.23;;;11.57;;
45694;SDS011;31408;45.468;9.124;2023-02-01T05:36:39;27.20;;;11.40;;
45694;SDS011;31408;45.468;9.124;2023-02-01T05:39:05;26.38;;;10.55;;
45694;SDS011;31408;45.468;9.124;2023-02-01T05:41:31;29.00;;;11.93;;
45694;SDS011;31408;45.468;9.124;2023-02-01T05:43:56;29.58;;;12.73;;
45694;SDS011;31408;45.468;9.124;2023-02-01T05:46:22;24.35;;;10.18;;
45694;SDS011;31408;45.468;9.124;2023-02-01T05:48:47;24.00;;;10.70;;
45694;SDS011;31408;45.468;9.124;2023-02-01T05:51:12;24.38;;;11.00;;
45694;SDS011;31408;45.468;9.124;2023-02-01T05:53:38;24.42;;;11.57;;
45694;SDS011;31408;45.468;9.124;2023-02-01T05:56:03;24.23;;;10.63;;
45694;SDS011;31408;45.468;9.124;2023-02-01T05:58:29;27.52;;;11.00;;
45694;SDS011;31408;45.468;9.124;2023-02-01T06:00:55;23.45;;;10.05;;
45694;SDS011;31408;45.468;9.124;2023-02-01T06:03:20;27.20;;;11.98;;
45694;SDS011;31408;45.468;9.124;2023-02-01T06:05:46;25.45;;;12.52;;
45694;SDS011;31408;45.468;9.124;2023-02-01T06:08:13;26.77;;;11.45;;
45694;SDS011;31408;45.468;9.124;2023-02-01T06:10:39;23.92;;;10.80;;
45694;SDS011;31408;45.468;9.124;2023-02-01T06:13:07;29.80;;;13.07;;
45694;SDS011;31408;45.468;9.124;2023-02-01T06:15:33;27.63;;;11.77;;
45694;SDS011;31408;45.468;9.124;2023-02-01T06:17:59;23.35;;;9.85;;
45694;SDS011;31408;45.468;9.124;2023-02-01T06:20:24;26.45;;;11.77;;
45694;SDS011;31408;45.468;9.124;2023-02-01T06:22:50;24.30;;;11.02;;
45694;SDS011;31408;45.468;9.124;2023-02-01T06:25:15;21.00;;;9.88;;
45694;SDS011;31408;45.468;9.124;2023-02-01T06:27:42;25.67;;;10.02;;
45694;SDS011;31408;45.468;9.124;2023-02-01T06:30:10;29.98;;;11.60;;
45694;SDS011;31408;45.468;9.124;2023-02-01T06:32:39;26.75;;;10.57;;
45694;SDS011;31408;45.468;9.124;2023-02-01T06:35:06;25.42;;;10.95;;
45694;SDS011;31408;45.468;9.124;2023-02-01T06:37:33;25.23;;;9.57;;
45694;SDS011;31408;45.468;9.124;2023-02-01T06:39:59;29.20;;;11.43;;
45694;SDS011;31408;45.468;9.124;2023-02-01T06:42:24;30.25;;;12.40;;
45694;SDS011;31408;45.468;9.124;2023-02-01T06:44:50;21.13;;;9.77;;
45694;SDS011;31408;45.468;9.124;2023-02-01T06:47:16;21.52;;;9.77;;
45694;SDS011;31408;45.468;9.124;2023-02-01T06:49:42;25.08;;;11.60;;
45694;SDS011;31408;45.468;9.124;2023-02-01T06:52:07;26.77;;;10.60;;
45694;SDS011;31408;45.468;9.124;2023-02-01T06:54:33;21.40;;;10.43;;
45694;SDS011;31408;45.468;9.124;2023-02-01T06:56:59;23.80;;;10.38;;
45694;SDS011;31408;45.468;9.124;2023-02-01T06:59:25;27.27;;;11.27;;
45694;SDS011;31408;45.468;9.124;2023-02-01T07:01:50;29.13;;;11.57;;
45694;SDS011;31408;45.468;9.124;2023-02-01T07:04:16;28.55;;;10.50;;
45694;SDS011;31408;45.468;9.124;2023-02-01T07:06:41;27.73;;;11.13;;
45694;SDS011;31408;45.468;9.124;2023-02-01T07:09:07;25.17;;;10.20;;
45694;SDS011;31408;45.468;9.124;2023-02-01T07:11:33;21.70;;;10.32;;
45694;SDS011;31408;45.468;9.124;2023-02-01T07:13:58;23.85;;;9.52;;
45694;SDS011;31408;45.468;9.124;2023-02-01T07:16:24;30.33;;;12.38;;
45694;SDS011;31408;45.468;9.124;2023-02-01T07:18:51;28.48;;;13.32;;
45694;SDS011;31408;45.468;9.124;2023-02-01T07:21:17;27.85;;;11.98;;
45694;SDS011;31408;45.468;9.124;2023-02-01T07:23:43;28.90;;;10.95;;
45694;SDS011;31408;45.468;9.124;2023-02-01T07:26:09;25.25;;;11.70;;
45694;SDS011;31408;45.468;9.124;2023-02-01T07:28:38;23.48;;;10.82;;
45694;SDS011;31408;45.468;9.124;2023-02-01T07:31:08;29.77;;;11.63;;
45694;SDS011;31408;45.468;9.124;2023-02-01T07:33:35;30.90;;;11.80;;
45694;SDS011;31408;45.468;9.124;2023-02-01T07:36:01;29.08;;;11.20;;
45694;SDS011;31408;45.468;9.124;2023-02-01T07:38:28;26.63;;;12.07;;
45694;SDS011;31408;45.468;9.124;2023-02-01T07:40:57;25.85;;;11.48;;
45694;SDS011;31408;45.468;9.124;2023-02-01T07:43:24;24.08;;;12.27;;
45694;SDS011;31408;45.468;9.124;2023-02-01T07:45:51;30.60;;;11.02;;
45694;SDS011;31408;45.468;9.124;2023-02-01T07:48:17;28.25;;;12.77;;
45694;SDS011;31408;45.468;9.124;2023-02-01T07:50:43;27.70;;;10.60;;
45694;SDS011;31408;45.468;9.124;2023-02-01T07:53:08;29.58;;;11.98;;
45694;SDS011;31408;45.468;9.124;2023-02-01T07:55:34;28.58;;;11.43;;
45694;SDS011;31408;45.468;9.124;2023-02-01T07:58:02;23.17;;;11.50;;
45694;SDS011;31408;45.468;9.124;2023-02-01T08:00:28;26.38;;;13.30;;
45694;SDS011;31408;45.468;9.124;2023-02-01T08:03:13;25.95;;;12.65;;
45694;SDS011;31408;45.468;9.124;2023-02-01T08:05:38;25.02;;;12.90;;
45694;SDS011;31408;45.468;9.124;2023-02-01T08:08:04;27.17;;;11.60;;
45694;SDS011;31408;45.468;9.124;2023-02-01T08:10:30;27.25;;;12.65;;
45694;SDS011;31408;45.468;9.124;2023-02-01T08:12:59;31.50;;;11.98;;
45694;SDS011;31408;45.468;9.124;2023-02-01T08:15:25;28.60;;;12.75;;
45694;SDS011;31408;45.468;9.124;2023-02-01T08:17:52;24.80;;;10.55;;
45694;SDS011;31408;45.468;9.124;2023-02-01T08:20:19;23.85;;;10.93;;
45694;SDS011;31408;45.468;9.124;2023-02-01T08:22:47;27.88;;;12.75;;
45694;SDS011;31408;45.468;9.124;2023-02-01T08:25:12;26.73;;;11.40;;
45694;SDS011;31408;45.468;9.124;2023-02-01T08:27:38;23.88;;;11.18;;
45694;SDS011;31408;45.468;9.124;2023-02-01T08:30:04;26.73;;;10.75;;
45694;SDS011;31408;45.468;9.124;2023-02-01T08:32:31;30.70;;;10.73;;
45694;SDS011;31408;45.468;9.124;2023-02-01T08:34:58;23.85;;;11.55;;
45694;SDS011;31408;45.468;9.124;2023-02-01T08:37:23;25.52;;;10.23;;
45694;SDS011;31408;45.468;9.124;2023-02-01T08:39:49;34.75;;;10.40;;
45694;SDS011;31408;45.468;9.124;2023-02-01T08:42:15;26.65;;;12.40;;
45694;SDS011;31408;45.468;9.124;2023-02-01T08:45:00;27.05;;;11.70;;
45694;SDS011;31408;45.468;9.124;2023-02-01T08:47:27;25.00;;;12.35;;
45694;SDS011;31408;45.468;9.124;2023-02-01T08:49:53;25.65;;;10.70;;
45694;SDS011;31408;45.468;9.124;2023-02-01T08:52:18;24.55;;;9.25;;
45694;SDS011;31408;45.468;9.124;2023-02-01T08:54:44;30.13;;;11.48;;
45694;SDS011;31408;45.468;9.124;2023-02-01T08:57:09;21.67;;;10.30;;
45694;SDS011;31408;45.468;9.124;2023-02-01T08:59:35;25.00;;;10.32;;
45694;SDS011;31408;45.468;9.124;2023-02-01T09:02:01;23.50;;;9.30;;
45694;SDS011;31408;45.468;9.124;2023-02-01T09:04:26;24.75;;;10.45;;
45694;SDS011;31408;45.468;9.124;2023-02-01T09:06:52;27.40;;;9.75;;
45694;SDS011;31408;45.468;9.124;2023-02-01T09:09:20;18.90;;;8.55;;
45694;SDS011;31408;45.468;9.124;2023-02-01T09:11:49;27.15;;;10.32;;
45694;SDS011;31408;45.468;9.124;2023-02-01T09:14:15;21.92;;;9.65;;
45694;SDS011;31408;45.468;9.124;2023-02-01T09:16:41;25.67;;;9.45;;
45694;SDS011;31408;45.468;9.124;2023-02-01T09:19:07;19.77;;;9.43;;
45694;SDS011;31408;45.468;9.124;2023-02-01T09:21:32;25.40;;;9.60;;
45694;SDS011;31408;45.468;9.124;2023-02-01T09:23:58;23.40;;;10.32;;
45694;SDS011;31408;45.468;9.124;2023-02-01T09:26:23;22.35;;;9.30;;
45694;SDS011;31408;45.468;9.124;2023-02-01T09:28:50;20.63;;;9.02;;
45694;SDS011;31408;45.468;9.124;2023-02-01T09:31:15;22.73;;;10.13;;
45694;SDS011;31408;45.468;9.124;2023-02-01T09:33:41;19.15;;;9.20;;
45694;SDS011;31408;45.468;9.124;2023-02-01T09:36:06;24.77;;;8.77;;
45694;SDS011;31408;45.468;9.124;2023-02-01T09:38:32;17.90;;;8.32;;
45694;SDS011;31408;45.468;9.124;2023-02-01T09:40:57;24.33;;;9.55;;
45694;SDS011;31408;45.468;9.124;2023-02-01T09:43:41;25.38;;;11.30;;
45694;SDS011;31408;45.468;9.124;2023-02-01T09:46:17;24.65;;;10.73;;
45694;SDS011;31408;45.468;9.124;2023-02-01T09:48:53;26.42;;;11.10;;
45694;SDS011;31408;45.468;9.124;2023-02-01T09:51:27;22.70;;;9.77;;
45694;SDS011;31408;45.468;9.124;2023-02-01T09:53:58;25.08;;;10.88;;
45694;SDS011;31408;45.468;9.124;2023-02-01T09:56:29;31.90;;;11.52;;
45694;SDS011;31408;45.468;9.124;2023-02-01T10:01:26;27.17;;;12.60;;
45694;SDS011;31408;45.468;9.124;2023-02-01T10:04:01;24.08;;;10.40;;
45694;SDS011;31408;45.468;9.124;2023-02-01T10:09:19;23.20;;;10.73;;
45694;SDS011;31408;45.468;9.124;2023-02-01T10:22:58;20.95;;;10.23;;
45694;SDS011;31408;45.468;9.124;2023-02-01T10:25:34;23.20;;;9.13;;
45694;SDS011;31408;45.468;9.124;2023-02-01T10:28:03;22.30;;;9.25;;
45694;SDS011;31408;45.468;9.124;2023-02-01T10:30:39;29.40;;;11.93;;
45694;SDS011;31408;45.468;9.124;2023-02-01T10:33:15;23.00;;;9.65;;
45694;SDS011;31408;45.468;9.124;2023-02-01T10:35:43;19.95;;;8.30;;
45694;SDS011;31408;45.468;9.124;2023-02-01T10:38:28;21.65;;;8.65;;
45694;SDS011;31408;45.468;9.124;2023-02-01T10:41:02;20.65;;;8.57;;
45694;SDS011;31408;45.468;9.124;2023-02-01T10:43:28;20.92;;;7.82;;
45694;SDS011;31408;45.468;9.124;2023-02-01T10:45:54;26.90;;;8.20;;
45694;SDS011;31408;45.468;9.124;2023-02-01T10:48:19;17.92;;;7.15;;
45694;SDS011;31408;45.468;9.124;2023-02-01T10:51:00;15.70;;;7.68;;
45694;SDS011;31408;45.468;9.124;2023-02-01T10:56:11;17.88;;;6.07;;
45694;SDS011;31408;45.468;9.124;2023-02-01T10:58:45;16.33;;;6.85;;
45694;SDS011;31408;45.468;9.124;2023-02-01T11:01:19;14.02;;;6.55;;
45694;SDS011;31408;45.468;9.124;2023-02-01T11:03:54;19.15;;;7.28;;
45694;SDS011;31408;45.468;9.124;2023-02-01T11:06:24;21.08;;;7.07;;
45694;SDS011;31408;45.468;9.124;2023-02-01T11:09:09;15.15;;;6.60;;
45694;SDS011;31408;45.468;9.124;2023-02-01T11:14:17;16.80;;;6.45;;
45694;SDS011;31408;45.468;9.124;2023-02-01T11:16:54;16.10;;;6.53;;
45694;SDS011;31408;45.468;9.124;2023-02-01T11:19:23;16.02;;;6.50;;
45694;SDS011;31408;45.468;9.124;2023-02-01T11:21:49;13.27;;;6.18;;
45694;SDS011;31408;45.468;9.124;2023-02-01T11:24:29;11.60;;;5.32;;
45694;SDS011;31408;45.468;9.124;2023-02-01T11:26:59;10.13;;;4.85;;
45694;SDS011;31408;45.468;9.124;2023-02-01T11:29:27;15.50;;;4.28;;
45694;SDS011;31408;45.468;9.124;2023-02-01T11:31:57;13.38;;;5.32;;
45694;SDS011;31408;45.468;9.124;2023-02-01T11:34:24;10.73;;;4.13;;
45694;SDS011;31408;45.468;9.124;2023-02-01T11:36:51;11.50;;;5.13;;
45694;SDS011;31408;45.468;9.124;2023-02-01T11:44:22;15.55;;;5.50;;
45694;SDS011;31408;45.468;9.124;2023-02-01T11:46:54;12.45;;;5.78;;
45694;SDS011;31408;45.468;9.124;2023-02-01T11:49:23;13.45;;;5.03;;
45694;SDS011;31408;45.468;9.124;2023-02-01T11:54:35;16.20;;;4.95;;
45694;SDS011;31408;45.468;9.124;2023-02-01T12:08:18;14.35;;;3.63;;
45694;SDS011;31408;45.468;9.124;2023-02-01T12:16:15;14.80;;;5.22;;
45694;SDS011;31408;45.468;9.124;2023-02-01T12:18:49;13.45;;;4.32;;
45694;SDS011;31408;45.468;9.124;2023-02-01T12:24:18;11.27;;;4.40;;
45694;SDS011;31408;45.468;9.124;2023-02-01T12:35:31;8.88;;;3.75;;
45694;SDS011;31408;45.468;9.124;2023-02-01T12:43:56;11.43;;;4.18;;
45694;SDS011;31408;45.468;9.124;2023-02-01T12:51:20;10.65;;;4.15;;
45694;SDS011;31408;45.468;9.124;2023-02-01T12:53:53;10.90;;;4.80;;
45694;SDS011;31408;45.468;9.124;2023-02-01T12:58:51;13.38;;;4.47;;
45694;SDS011;31408;45.468;9.124;2023-02-01T13:01:36;12.18;;;4.85;;
45694;SDS011;31408;45.468;9.124;2023-02-01T13:04:20;12.30;;;3.78;;
45694;SDS011;31408;45.468;9.124;2023-02-01T13:07:14;12.68;;;5.28;;
45694;SDS011;31408;45.468;9.124;2023-02-01T13:09:59;11.52;;;3.90;;
45694;SDS011;31408;45.468;9.124;2023-02-01T13:12:33;11.90;;;4.07;;
45694;SDS011;31408;45.468;9.124;2023-02-01T13:15:09;13.48;;;4.35;;
45694;SDS011;31408;45.468;9.124;2023-02-01T13:17:38;11.98;;;4.32;;
45694;SDS011;31408;45.468;9.124;2023-02-01T13:26:04;13.63;;;3.83;;
45694;SDS011;31408;45.468;9.124;2023-02-01T13:28:51;5.68;;;3.10;;
45694;SDS011;31408;45.468;9.124;2023-02-01T13:42:37;8.93;;;3.75;;
45694;SDS011;31408;45.468;9.124;2023-02-01T13:45:17;8.95;;;2.97;;
45694;SDS011;31408;45.468;9.124;2023-02-01T13:47:46;10.45;;;2.75;;
45694;SDS011;31408;45.468;9.124;2023-02-01T13:53:13;7.45;;;2.65;;
45694;SDS011;31408;45.468;9.124;2023-02-01T13:55:41;14.98;;;3.50;;
45694;SDS011;31408;45.468;9.124;2023-02-01T14:03:47;11.32;;;3.25;;
45694;SDS011;31408;45.468;9.124;2023-02-01T14:06:38;7.00;;;2.90;;
45694;SDS011;31408;45.468;9.124;2023-02-01T14:11:36;15.95;;;4.03;;
45694;SDS011;31408;45.468;9.124;2023-02-01T14:16:40;13.52;;;5.05;;
45694;SDS011;31408;45.468;9.124;2023-02-01T14:19:09;9.25;;;3.83;;
45694;SDS011;31408;45.468;9.124;2023-02-01T14:21:52;10.80;;;3.28;;
45694;SDS011;31408;45.468;9.124;2023-02-01T14:24:33;7.82;;;3.13;;
45694;SDS011;31408;45.468;9.124;2023-02-01T14:29:36;6.63;;;2.38;;
45694;SDS011;31408;45.468;9.124;2023-02-01T14:32:06;11.40;;;3.17;;
45694;SDS011;31408;45.468;9.124;2023-02-01T14:48:39;8.90;;;2.88;;
45694;SDS011;31408;45.468;9.124;2023-02-01T14:50:46;9.35;;;3.13;;
45694;SDS011;31408;45.468;9.124;2023-02-01T14:55:52;8.18;;;3.15;;
45694;SDS011;31408;45.468;9.124;2023-02-01T15:00:56;15.15;;;3.80;;
45694;SDS011;31408;45.468;9.124;2023-02-01T15:05:58;9.50;;;3.00;;
45694;SDS011;31408;45.468;9.124;2023-02-01T15:08:29;5.78;;;2.95;;
45694;SDS011;31408;45.468;9.124;2023-02-01T15:10:56;7.15;;;3.20;;
45694;SDS011;31408;45.468;9.124;2023-02-01T15:13:24;18.40;;;4.10;;
45694;SDS011;31408;45.468;9.124;2023-02-01T15:16:05;16.00;;;3.58;;
45694;SDS011;31408;45.468;9.124;2023-02-01T15:18:37;11.70;;;3.75;;
45694;SDS011;31408;45.468;9.124;2023-02-01T15:21:03;9.68;;;3.55;;
45694;SDS011;31408;45.468;9.124;2023-02-01T15:23:30;12.73;;;4.63;;
45694;SDS011;31408;45.468;9.124;2023-02-01T15:25:56;7.80;;;3.33;;
45694;SDS011;31408;45.468;9.124;2023-02-01T15:28:24;15.70;;;4.22;;
45694;SDS011;31408;45.468;9.124;2023-02-01T15:33:23;14.45;;;4.75;;
45694;SDS011;31408;45.468;9.124;2023-02-01T15:35:52;11.55;;;4.70;;
45694;SDS011;31408;45.468;9.124;2023-02-01T15:38:38;9.60;;;4.00;;
45694;SDS011;31408;45.468;9.124;2023-02-01T15:46:22;17.23;;;4.32;;
45694;SDS011;31408;45.468;9.124;2023-02-01T15:48:55;10.57;;;4.10;;
45694;SDS011;31408;45.468;9.124;2023-02-01T15:51:22;15.50;;;4.13;;
45694;SDS011;31408;45.468;9.124;2023-02-01T15:53:56;12.35;;;4.70;;
45694;SDS011;31408;45.468;9.124;2023-02-01T15:56:27;9.55;;;3.75;;
45694;SDS011;31408;45.468;9.124;2023-02-01T15:58:59;11.82;;;4.15;;
45694;SDS011;31408;45.468;9.124;2023-02-01T16:01:26;12.82;;;4.32;;
45694;SDS011;31408;45.468;9.124;2023-02-01T16:06:50;11.93;;;3.88;;
45694;SDS011;31408;45.468;9.124;2023-02-01T16:09:19;11.02;;;4.93;;
45694;SDS011;31408;45.468;9.124;2023-02-01T16:11:56;14.95;;;4.30;;
45694;SDS011;31408;45.468;9.124;2023-02-01T16:14:23;9.82;;;4.03;;
45694;SDS011;31408;45.468;9.124;2023-02-01T16:16:50;17.23;;;5.78;;
45694;SDS011;31408;45.468;9.124;2023-02-01T16:19:16;13.52;;;5.20;;
45694;SDS011;31408;45.468;9.124;2023-02-01T16:21:42;22.15;;;5.80;;
45694;SDS011;31408;45.468;9.124;2023-02-01T16:24:08;16.60;;;5.85;;
45694;SDS011;31408;45.468;9.124;2023-02-01T16:26:33;12.63;;;5.63;;
45694;SDS011;31408;45.468;9.124;2023-02-01T16:28:59;13.30;;;5.68;;
45694;SDS011;31408;45.468;9.124;2023-02-01T16:31:29;11.27;;;5.15;;
45694;SDS011;31408;45.468;9.124;2023-02-01T16:33:56;18.35;;;6.00;;
45694;SDS011;31408;45.468;9.124;2023-02-01T16:36:21;14.65;;;6.22;;
45694;SDS011;31408;45.468;9.124;2023-02-01T16:38:47;15.82;;;5.97;;
45694;SDS011;31408;45.468;9.124;2023-02-01T16:41:15;15.00;;;5.57;;
45694;SDS011;31408;45.468;9.124;2023-02-01T16:43:41;12.40;;;5.20;;
45694;SDS011;31408;45.468;9.124;2023-02-01T16:46:11;11.60;;;5.05;;
45694;SDS011;31408;45.468;9.124;2023-02-01T16:48:40;16.52;;;5.50;;
45694;SDS011;31408;45.468;9.124;2023-02-01T16:51:11;11.88;;;5.57;;
45694;SDS011;31408;45.468;9.124;2023-02-01T16:53:38;18.98;;;6.60;;
45694;SDS011;31408;45.468;9.124;2023-02-01T16:56:08;18.00;;;6.45;;
45694;SDS011;31408;45.468;9.124;2023-02-01T16:58:37;20.20;;;7.25;;
45694;SDS011;31408;45.468;9.124;2023-02-01T17:01:06;15.07;;;6.28;;
45694;SDS011;31408;45.468;9.124;2023-02-01T17:03:31;9.63;;;4.47;;
45694;SDS011;31408;45.468;9.124;2023-02-01T17:05:57;10.70;;;5.07;;
45694;SDS011;31408;45.468;9.124;2023-02-01T17:08:57;13.52;;;5.85;;
45694;SDS011;31408;45.468;9.124;2023-02-01T17:11:16;13.55;;;5.72;;
45694;SDS011;31408;45.468;9.124;2023-02-01T17:13:42;14.07;;;5.35;;
45694;SDS011;31408;45.468;9.124;2023-02-01T17:16:31;16.15;;;6.00;;
45694;SDS011;31408;45.468;9.124;2023-02-01T17:21:29;15.82;;;6.10;;
45694;SDS011;31408;45.468;9.124;2023-02-01T17:23:55;11.25;;;5.45;;
45694;SDS011;31408;45.468;9.124;2023-02-01T17:26:24;17.55;;;6.43;;
45694;SDS011;31408;45.468;9.124;2023-02-01T17:28:49;19.35;;;6.28;;
45694;SDS011;31408;45.468;9.124;2023-02-01T17:31:15;13.68;;;5.47;;
45694;SDS011;31408;45.468;9.124;2023-02-01T17:33:41;17.00;;;6.30;;
45694;SDS011;31408;45.468;9.124;2023-02-01T17:36:08;18.52;;;7.30;;
45694;SDS011;31408;45.468;9.124;2023-02-01T17:38:37;15.20;;;6.57;;
45694;SDS011;31408;45.468;9.124;2023-02-01T17:41:02;16.90;;;6.07;;
45694;SDS011;31408;45.468;9.124;2023-02-01T17:43:28;16.13;;;6.72;;
45694;SDS011;31408;45.468;9.124;2023-02-01T17:45:55;19.98;;;6.53;;